sensor_id;sensor_type;location;lat;lon;timestamp;P1;durP1;ratioP1;P2;durP2;ratioP2
10872;SDS011;34586;53.616;10.032;2022-12-29T00:01:16;2.47;;;2.30;;
10872;SDS011;34586;53.616;10.032;2022-12-29T00:03:42;2.57;;;2.20;;
10872;SDS011;34586;53.616;10.032;2022-12-29T00:06:10;4.23;;;2.40;;
10872;SDS011;34586;53.616;10.032;2022-12-29T00:08:35;2.90;;;2.37;;
10872;SDS011;34586;53.616;10.032;2022-12-29T00:11:14;2.33;;;2.23;;
10872;SDS011;34586;53.616;10.032;2022-12-29T00:13:41;3.83;;;2.17;;
10872;SDS011;34586;53.616;10.032;2022-12-29T00:16:26;5.13;;;2.90;;
10872;SDS011;34586;53.616;10.032;2022-12-29T00:18:52;2.13;;;2.03;;
10872;SDS011;34586;53.616;10.032;2022-12-29T00:21:18;2.90;;;2.47;;
10872;SDS011;34586;53.616;10.032;2022-12-29T00:24:04;3.27;;;2.70;;
10872;SDS011;34586;53.616;10.032;2022-12-29T00:26:39;2.40;;;2.13;;
10872;SDS011;34586;53.616;10.032;2022-12-29T00:29:24;3.00;;;2.70;;
10872;SDS011;34586;53.616;10.032;2022-12-29T00:32:09;2.17;;;2.07;;
10872;SDS011;34586;53.616;10.032;2022-12-29T00:34:54;2.30;;;2.20;;
10872;SDS011;34586;53.616;10.032;2022-12-29T00:37:38;3.77;;;2.77;;
10872;SDS011;34586;53.616;10.032;2022-12-29T00:40:25;2.37;;;2.27;;
10872;SDS011;34586;53.616;10.032;2022-12-29T00:43:09;2.70;;;2.50;;
10872;SDS011;34586;53.616;10.032;2022-12-29T00:45:54;2.80;;;2.60;;
10872;SDS011;34586;53.616;10.032;2022-12-29T00:48:19;3.97;;;2.40;;
10872;SDS011;34586;53.616;10.032;2022-12-29T00:51:05;4.23;;;2.50;;
10872;SDS011;34586;53.616;10.032;2022-12-29T00:53:31;2.37;;;2.17;;
10872;SDS011;34586;53.616;10.032;2022-12-29T00:55:57;2.83;;;2.57;;
10872;SDS011;34586;53.616;10.032;2022-12-29T00:58:23;3.23;;;2.70;;
10872;SDS011;34586;53.616;10.032;2022-12-29T01:00:48;2.70;;;2.47;;
10872;SDS011;34586;53.616;10.032;2022-12-29T01:03:14;3.00;;;2.80;;
10872;SDS011;34586;53.616;10.032;2022-12-29T01:05:39;4.30;;;2.80;;
10872;SDS011;34586;53.616;10.032;2022-12-29T01:08:05;2.60;;;2.50;;
10872;SDS011;34586;53.616;10.032;2022-12-29T01:10:31;2.90;;;2.30;;
10872;SDS011;34586;53.616;10.032;2022-12-29T01:12:56;2.60;;;2.40;;
10872;SDS011;34586;53.616;10.032;2022-12-29T01:15:22;2.70;;;2.50;;
10872;SDS011;34586;53.616;10.032;2022-12-29T01:17:47;2.30;;;2.20;;
10872;SDS011;34586;53.616;10.032;2022-12-29T01:20:13;2.43;;;2.23;;
10872;SDS011;34586;53.616;10.032;2022-12-29T01:22:39;5.07;;;2.20;;
10872;SDS011;34586;53.616;10.032;2022-12-29T01:25:05;2.80;;;2.50;;
10872;SDS011;34586;53.616;10.032;2022-12-29T01:27:31;2.50;;;2.30;;
10872;SDS011;34586;53.616;10.032;2022-12-29T01:29:56;2.40;;;2.07;;
10872;SDS011;34586;53.616;10.032;2022-12-29T01:32:22;2.60;;;2.40;;
10872;SDS011;34586;53.616;10.032;2022-12-29T01:34:48;2.37;;;2.23;;
10872;SDS011;34586;53.616;10.032;2022-12-29T01:37:13;2.70;;;2.40;;
10872;SDS011;34586;53.616;10.032;2022-12-29T01:39:39;2.80;;;2.60;;
10872;SDS011;34586;53.616;10.032;2022-12-29T01:42:14;2.70;;;2.60;;
10872;SDS011;34586;53.616;10.032;2022-12-29T01:44:49;3.03;;;2.83;;
10872;SDS011;34586;53.616;10.032;2022-12-29T01:47:18;3.50;;;2.87;;
10872;SDS011;34586;53.616;10.032;2022-12-29T01:49:58;3.00;;;2.80;;
10872;SDS011;34586;53.616;10.032;2022-12-29T01:52:29;3.20;;;3.00;;
10872;SDS011;34586;53.616;10.032;2022-12-29T01:54:58;3.50;;;3.20;;
10872;SDS011;34586;53.616;10.032;2022-12-29T01:57:27;3.20;;;3.00;;
10872;SDS011;34586;53.616;10.032;2022-12-29T02:00:00;3.37;;;3.13;;
10872;SDS011;34586;53.616;10.032;2022-12-29T02:02:29;3.80;;;3.50;;
10872;SDS011;34586;53.616;10.032;2022-12-29T02:04:56;3.50;;;3.30;;
10872;SDS011;34586;53.616;10.032;2022-12-29T02:07:26;3.57;;;3.33;;
10872;SDS011;34586;53.616;10.032;2022-12-29T02:09:53;3.03;;;2.87;;
10872;SDS011;34586;53.616;10.032;2022-12-29T02:12:20;3.83;;;3.53;;
10872;SDS011;34586;53.616;10.032;2022-12-29T02:14:49;3.90;;;3.53;;
10872;SDS011;34586;53.616;10.032;2022-12-29T02:17:22;3.77;;;3.47;;
10872;SDS011;34586;53.616;10.032;2022-12-29T02:30:40;4.00;;;3.70;;
10872;SDS011;34586;53.616;10.032;2022-12-29T02:41:20;4.73;;;3.83;;
10872;SDS011;34586;53.616;10.032;2022-12-29T02:46:51;4.27;;;3.80;;
10872;SDS011;34586;53.616;10.032;2022-12-29T02:49:31;3.37;;;3.10;;
10872;SDS011;34586;53.616;10.032;2022-12-29T02:54:31;3.90;;;3.53;;
10872;SDS011;34586;53.616;10.032;2022-12-29T02:57:15;3.73;;;3.43;;
10872;SDS011;34586;53.616;10.032;2022-12-29T02:59:51;3.17;;;2.97;;
10872;SDS011;34586;53.616;10.032;2022-12-29T03:08:27;3.60;;;3.30;;
10872;SDS011;34586;53.616;10.032;2022-12-29T03:11:12;3.03;;;2.77;;
10872;SDS011;34586;53.616;10.032;2022-12-29T03:14:17;3.30;;;3.10;;
10872;SDS011;34586;53.616;10.032;2022-12-29T03:17:20;3.03;;;2.70;;
10872;SDS011;34586;53.616;10.032;2022-12-29T03:20:07;2.93;;;2.73;;
10872;SDS011;34586;53.616;10.032;2022-12-29T03:22:38;3.00;;;2.87;;
10872;SDS011;34586;53.616;10.032;2022-12-29T03:25:08;3.10;;;2.87;;
10872;SDS011;34586;53.616;10.032;2022-12-29T03:27:39;4.67;;;2.80;;
10872;SDS011;34586;53.616;10.032;2022-12-29T03:30:10;2.70;;;2.50;;
10872;SDS011;34586;53.616;10.032;2022-12-29T03:32:39;3.17;;;2.93;;
10872;SDS011;34586;53.616;10.032;2022-12-29T03:35:09;3.03;;;2.40;;
10872;SDS011;34586;53.616;10.032;2022-12-29T03:37:42;2.90;;;2.70;;
10872;SDS011;34586;53.616;10.032;2022-12-29T03:40:14;2.93;;;2.73;;
10872;SDS011;34586;53.616;10.032;2022-12-29T03:42:40;2.77;;;2.60;;
10872;SDS011;34586;53.616;10.032;2022-12-29T03:45:06;2.80;;;2.60;;
10872;SDS011;34586;53.616;10.032;2022-12-29T03:47:33;4.33;;;2.63;;
10872;SDS011;34586;53.616;10.032;2022-12-29T03:49:58;2.30;;;2.20;;
10872;SDS011;34586;53.616;10.032;2022-12-29T03:52:24;2.67;;;2.57;;
10872;SDS011;34586;53.616;10.032;2022-12-29T03:54:49;2.33;;;2.23;;
10872;SDS011;34586;53.616;10.032;2022-12-29T03:57:15;2.60;;;2.40;;
10872;SDS011;34586;53.616;10.032;2022-12-29T03:59:41;2.20;;;2.10;;
10872;SDS011;34586;53.616;10.032;2022-12-29T04:02:06;2.73;;;2.47;;
10872;SDS011;34586;53.616;10.032;2022-12-29T04:04:32;2.30;;;2.10;;
10872;SDS011;34586;53.616;10.032;2022-12-29T04:06:57;2.20;;;2.07;;
10872;SDS011;34586;53.616;10.032;2022-12-29T04:09:23;2.43;;;2.30;;
10872;SDS011;34586;53.616;10.032;2022-12-29T04:11:48;2.43;;;2.27;;
10872;SDS011;34586;53.616;10.032;2022-12-29T04:14:14;2.10;;;1.90;;
10872;SDS011;34586;53.616;10.032;2022-12-29T04:16:40;2.20;;;2.00;;
10872;SDS011;34586;53.616;10.032;2022-12-29T04:19:06;2.23;;;1.90;;
10872;SDS011;34586;53.616;10.032;2022-12-29T04:21:32;1.97;;;1.87;;
10872;SDS011;34586;53.616;10.032;2022-12-29T04:23:57;2.03;;;1.93;;
10872;SDS011;34586;53.616;10.032;2022-12-29T04:26:23;2.20;;;2.10;;
10872;SDS011;34586;53.616;10.032;2022-12-29T04:28:51;1.80;;;1.70;;
10872;SDS011;34586;53.616;10.032;2022-12-29T04:31:17;6.30;;;2.10;;
10872;SDS011;34586;53.616;10.032;2022-12-29T04:33:42;1.80;;;1.70;;
10872;SDS011;34586;53.616;10.032;2022-12-29T04:36:08;1.90;;;1.80;;
10872;SDS011;34586;53.616;10.032;2022-12-29T04:38:34;1.80;;;1.70;;
10872;SDS011;34586;53.616;10.032;2022-12-29T04:41:00;1.30;;;1.30;;
10872;SDS011;34586;53.616;10.032;2022-12-29T04:43:26;1.73;;;1.63;;
10872;SDS011;34586;53.616;10.032;2022-12-29T04:45:52;2.07;;;1.60;;
10872;SDS011;34586;53.616;10.032;2022-12-29T04:48:18;1.93;;;1.83;;
10872;SDS011;34586;53.616;10.032;2022-12-29T04:50:46;1.50;;;1.40;;
10872;SDS011;34586;53.616;10.032;2022-12-29T04:53:13;2.03;;;1.57;;
10872;SDS011;34586;53.616;10.032;2022-12-29T04:55:39;1.80;;;1.70;;
10872;SDS011;34586;53.616;10.032;2022-12-29T04:58:04;2.60;;;1.90;;
10872;SDS011;34586;53.616;10.032;2022-12-29T05:00:30;1.80;;;1.70;;
10872;SDS011;34586;53.616;10.032;2022-12-29T05:02:55;1.90;;;1.60;;
10872;SDS011;34586;53.616;10.032;2022-12-29T05:05:21;1.70;;;1.60;;
10872;SDS011;34586;53.616;10.032;2022-12-29T05:07:46;2.70;;;1.70;;
10872;SDS011;34586;53.616;10.032;2022-12-29T05:10:12;3.33;;;1.80;;
10872;SDS011;34586;53.616;10.032;2022-12-29T05:12:38;1.70;;;1.60;;
10872;SDS011;34586;53.616;10.032;2022-12-29T05:15:04;2.90;;;1.97;;
10872;SDS011;34586;53.616;10.032;2022-12-29T05:17:32;1.57;;;1.47;;
10872;SDS011;34586;53.616;10.032;2022-12-29T05:19:58;1.70;;;1.60;;
10872;SDS011;34586;53.616;10.032;2022-12-29T05:22:24;1.30;;;1.30;;
10872;SDS011;34586;53.616;10.032;2022-12-29T05:24:50;1.77;;;1.67;;
10872;SDS011;34586;53.616;10.032;2022-12-29T05:27:15;2.87;;;1.00;;
10872;SDS011;34586;53.616;10.032;2022-12-29T05:29:41;1.30;;;1.20;;
10872;SDS011;34586;53.616;10.032;2022-12-29T05:32:07;2.03;;;1.30;;
10872;SDS011;34586;53.616;10.032;2022-12-29T05:34:32;1.20;;;1.10;;
10872;SDS011;34586;53.616;10.032;2022-12-29T05:36:58;1.40;;;1.30;;
10872;SDS011;34586;53.616;10.032;2022-12-29T05:39:23;1.70;;;1.60;;
10872;SDS011;34586;53.616;10.032;2022-12-29T05:41:49;1.60;;;1.60;;
10872;SDS011;34586;53.616;10.032;2022-12-29T05:44:15;1.60;;;1.50;;
10872;SDS011;34586;53.616;10.032;2022-12-29T05:46:40;2.40;;;1.63;;
10872;SDS011;34586;53.616;10.032;2022-12-29T05:49:06;2.37;;;1.70;;
10872;SDS011;34586;53.616;10.032;2022-12-29T05:51:32;1.40;;;1.30;;
10872;SDS011;34586;53.616;10.032;2022-12-29T05:53:57;1.40;;;1.30;;
10872;SDS011;34586;53.616;10.032;2022-12-29T05:56:23;2.07;;;1.27;;
10872;SDS011;34586;53.616;10.032;2022-12-29T05:58:48;1.23;;;1.23;;
10872;SDS011;34586;53.616;10.032;2022-12-29T06:01:14;2.67;;;1.07;;
10872;SDS011;34586;53.616;10.032;2022-12-29T06:03:40;1.07;;;1.00;;
10872;SDS011;34586;53.616;10.032;2022-12-29T06:06:05;1.90;;;1.00;;
10872;SDS011;34586;53.616;10.032;2022-12-29T06:08:31;1.57;;;1.20;;
10872;SDS011;34586;53.616;10.032;2022-12-29T06:10:57;1.20;;;1.10;;
10872;SDS011;34586;53.616;10.032;2022-12-29T06:13:23;1.27;;;0.80;;
10872;SDS011;34586;53.616;10.032;2022-12-29T06:15:49;0.93;;;0.70;;
10872;SDS011;34586;53.616;10.032;2022-12-29T06:18:15;1.47;;;0.70;;
10872;SDS011;34586;53.616;10.032;2022-12-29T06:20:40;3.67;;;0.80;;
10872;SDS011;34586;53.616;10.032;2022-12-29T06:23:06;1.43;;;0.70;;
10872;SDS011;34586;53.616;10.032;2022-12-29T06:25:31;1.13;;;0.90;;
10872;SDS011;34586;53.616;10.032;2022-12-29T06:27:58;0.97;;;0.80;;
10872;SDS011;34586;53.616;10.032;2022-12-29T06:30:24;0.80;;;0.80;;
10872;SDS011;34586;53.616;10.032;2022-12-29T06:32:50;1.37;;;0.63;;
10872;SDS011;34586;53.616;10.032;2022-12-29T06:35:16;0.77;;;0.63;;
10872;SDS011;34586;53.616;10.032;2022-12-29T06:37:41;0.77;;;0.70;;
10872;SDS011;34586;53.616;10.032;2022-12-29T06:40:08;0.80;;;0.80;;
10872;SDS011;34586;53.616;10.032;2022-12-29T06:42:34;0.87;;;0.70;;
10872;SDS011;34586;53.616;10.032;2022-12-29T06:45:00;0.67;;;0.67;;
10872;SDS011;34586;53.616;10.032;2022-12-29T06:47:26;0.57;;;0.57;;
10872;SDS011;34586;53.616;10.032;2022-12-29T06:49:51;1.23;;;0.80;;
10872;SDS011;34586;53.616;10.032;2022-12-29T06:52:17;0.87;;;0.70;;
10872;SDS011;34586;53.616;10.032;2022-12-29T06:54:42;0.77;;;0.77;;
10872;SDS011;34586;53.616;10.032;2022-12-29T06:57:08;1.47;;;0.70;;
10872;SDS011;34586;53.616;10.032;2022-12-29T06:59:34;1.00;;;0.70;;
10872;SDS011;34586;53.616;10.032;2022-12-29T07:01:59;1.37;;;0.80;;
10872;SDS011;34586;53.616;10.032;2022-12-29T07:04:26;0.73;;;0.73;;
10872;SDS011;34586;53.616;10.032;2022-12-29T07:06:52;2.40;;;0.70;;
10872;SDS011;34586;53.616;10.032;2022-12-29T07:09:18;1.07;;;1.07;;
10872;SDS011;34586;53.616;10.032;2022-12-29T07:11:44;2.57;;;0.90;;
10872;SDS011;34586;53.616;10.032;2022-12-29T07:14:10;1.20;;;0.80;;
10872;SDS011;34586;53.616;10.032;2022-12-29T07:16:36;1.33;;;0.97;;
10872;SDS011;34586;53.616;10.032;2022-12-29T07:19:02;0.90;;;0.90;;
10872;SDS011;34586;53.616;10.032;2022-12-29T07:21:27;1.33;;;0.80;;
10872;SDS011;34586;53.616;10.032;2022-12-29T07:23:53;1.53;;;0.90;;
10872;SDS011;34586;53.616;10.032;2022-12-29T07:26:19;1.40;;;0.87;;
10872;SDS011;34586;53.616;10.032;2022-12-29T07:28:45;1.37;;;1.00;;
10872;SDS011;34586;53.616;10.032;2022-12-29T07:31:14;1.27;;;0.90;;
10872;SDS011;34586;53.616;10.032;2022-12-29T07:33:45;1.43;;;0.80;;
10872;SDS011;34586;53.616;10.032;2022-12-29T07:36:12;1.33;;;1.00;;
10872;SDS011;34586;53.616;10.032;2022-12-29T07:38:39;1.20;;;1.10;;
10872;SDS011;34586;53.616;10.032;2022-12-29T07:41:05;0.83;;;0.83;;
10872;SDS011;34586;53.616;10.032;2022-12-29T07:43:31;1.30;;;1.20;;
10872;SDS011;34586;53.616;10.032;2022-12-29T07:45:56;1.67;;;0.80;;
10872;SDS011;34586;53.616;10.032;2022-12-29T07:48:22;3.07;;;1.20;;
10872;SDS011;34586;53.616;10.032;2022-12-29T07:50:48;1.20;;;0.67;;
10872;SDS011;34586;53.616;10.032;2022-12-29T07:53:13;1.13;;;0.83;;
10872;SDS011;34586;53.616;10.032;2022-12-29T07:55:39;2.70;;;1.23;;
10872;SDS011;34586;53.616;10.032;2022-12-29T07:58:05;1.53;;;1.10;;
10872;SDS011;34586;53.616;10.032;2022-12-29T08:00:31;2.13;;;1.00;;
10872;SDS011;34586;53.616;10.032;2022-12-29T08:02:57;1.23;;;0.90;;
10872;SDS011;34586;53.616;10.032;2022-12-29T08:05:23;1.10;;;0.90;;
10872;SDS011;34586;53.616;10.032;2022-12-29T08:07:48;1.43;;;0.97;;
10872;SDS011;34586;53.616;10.032;2022-12-29T08:10:14;1.33;;;0.77;;
10872;SDS011;34586;53.616;10.032;2022-12-29T08:12:40;0.80;;;0.80;;
10872;SDS011;34586;53.616;10.032;2022-12-29T08:15:07;1.30;;;0.97;;
10872;SDS011;34586;53.616;10.032;2022-12-29T08:17:33;1.17;;;0.60;;
10872;SDS011;34586;53.616;10.032;2022-12-29T08:19:59;2.13;;;1.00;;
10872;SDS011;34586;53.616;10.032;2022-12-29T08:22:25;1.03;;;0.70;;
10872;SDS011;34586;53.616;10.032;2022-12-29T08:24:51;2.10;;;0.60;;
10872;SDS011;34586;53.616;10.032;2022-12-29T08:27:16;2.30;;;0.80;;
10872;SDS011;34586;53.616;10.032;2022-12-29T08:29:42;0.97;;;0.80;;
10872;SDS011;34586;53.616;10.032;2022-12-29T08:32:08;2.10;;;1.13;;
10872;SDS011;34586;53.616;10.032;2022-12-29T08:34:33;0.83;;;0.60;;
10872;SDS011;34586;53.616;10.032;2022-12-29T08:36:59;1.83;;;1.00;;
10872;SDS011;34586;53.616;10.032;2022-12-29T08:39:24;1.97;;;0.90;;
10872;SDS011;34586;53.616;10.032;2022-12-29T08:41:50;3.20;;;1.20;;
10872;SDS011;34586;53.616;10.032;2022-12-29T08:44:16;1.17;;;0.80;;
10872;SDS011;34586;53.616;10.032;2022-12-29T08:46:41;1.27;;;0.90;;
10872;SDS011;34586;53.616;10.032;2022-12-29T08:49:07;2.23;;;0.87;;
10872;SDS011;34586;53.616;10.032;2022-12-29T08:51:33;1.73;;;0.77;;
10872;SDS011;34586;53.616;10.032;2022-12-29T08:53:58;0.97;;;0.90;;
10872;SDS011;34586;53.616;10.032;2022-12-29T08:56:24;1.00;;;0.70;;
10872;SDS011;34586;53.616;10.032;2022-12-29T08:58:51;0.83;;;0.60;;
10872;SDS011;34586;53.616;10.032;2022-12-29T09:01:17;1.87;;;0.73;;
10872;SDS011;34586;53.616;10.032;2022-12-29T09:03:43;0.70;;;0.60;;
10872;SDS011;34586;53.616;10.032;2022-12-29T09:06:09;0.90;;;0.70;;
10872;SDS011;34586;53.616;10.032;2022-12-29T09:08:34;0.77;;;0.50;;
10872;SDS011;34586;53.616;10.032;2022-12-29T09:11:10;2.27;;;0.60;;
10872;SDS011;34586;53.616;10.032;2022-12-29T09:13:40;2.03;;;0.90;;
10872;SDS011;34586;53.616;10.032;2022-12-29T09:16:06;2.17;;;0.70;;
10872;SDS011;34586;53.616;10.032;2022-12-29T09:18:32;1.00;;;0.60;;
10872;SDS011;34586;53.616;10.032;2022-12-29T09:20:59;1.73;;;0.67;;
10872;SDS011;34586;53.616;10.032;2022-12-29T09:23:26;1.63;;;0.90;;
10872;SDS011;34586;53.616;10.032;2022-12-29T09:25:52;2.23;;;0.60;;
10872;SDS011;34586;53.616;10.032;2022-12-29T09:28:18;2.10;;;0.80;;
10872;SDS011;34586;53.616;10.032;2022-12-29T09:30:44;2.67;;;0.70;;
10872;SDS011;34586;53.616;10.032;2022-12-29T09:33:10;1.40;;;0.60;;
10872;SDS011;34586;53.616;10.032;2022-12-29T09:35:35;2.30;;;0.80;;
10872;SDS011;34586;53.616;10.032;2022-12-29T09:38:01;2.27;;;0.80;;
10872;SDS011;34586;53.616;10.032;2022-12-29T09:40:28;5.47;;;1.03;;
10872;SDS011;34586;53.616;10.032;2022-12-29T09:43:17;2.50;;;0.73;;
10872;SDS011;34586;53.616;10.032;2022-12-29T09:48:34;4.03;;;0.87;;
10872;SDS011;34586;53.616;10.032;2022-12-29T09:51:07;3.40;;;0.83;;
10872;SDS011;34586;53.616;10.032;2022-12-29T09:53:38;3.27;;;0.80;;
10872;SDS011;34586;53.616;10.032;2022-12-29T09:56:17;2.67;;;0.70;;
10872;SDS011;34586;53.616;10.032;2022-12-29T10:01:24;3.10;;;0.70;;
10872;SDS011;34586;53.616;10.032;2022-12-29T10:04:11;2.63;;;0.80;;
10872;SDS011;34586;53.616;10.032;2022-12-29T10:06:48;2.57;;;0.83;;
10872;SDS011;34586;53.616;10.032;2022-12-29T10:15:29;4.13;;;0.90;;
10872;SDS011;34586;53.616;10.032;2022-12-29T10:20:24;5.07;;;1.27;;
10872;SDS011;34586;53.616;10.032;2022-12-29T10:23:20;5.00;;;1.10;;
10872;SDS011;34586;53.616;10.032;2022-12-29T10:25:52;3.23;;;0.83;;
10872;SDS011;34586;53.616;10.032;2022-12-29T10:30:56;2.27;;;0.70;;
10872;SDS011;34586;53.616;10.032;2022-12-29T10:33:25;3.67;;;1.00;;
10872;SDS011;34586;53.616;10.032;2022-12-29T10:35:56;3.93;;;0.80;;
10872;SDS011;34586;53.616;10.032;2022-12-29T10:43:49;3.80;;;1.10;;
10872;SDS011;34586;53.616;10.032;2022-12-29T10:46:18;5.70;;;1.00;;
10872;SDS011;34586;53.616;10.032;2022-12-29T10:48:47;5.50;;;0.90;;
10872;SDS011;34586;53.616;10.032;2022-12-29T10:54:03;4.07;;;1.00;;
10872;SDS011;34586;53.616;10.032;2022-12-29T10:56:51;3.03;;;1.03;;
10872;SDS011;34586;53.616;10.032;2022-12-29T10:59:23;6.83;;;0.80;;
10872;SDS011;34586;53.616;10.032;2022-12-29T11:04:53;6.33;;;1.43;;
10872;SDS011;34586;53.616;10.032;2022-12-29T11:07:24;5.27;;;1.03;;
10872;SDS011;34586;53.616;10.032;2022-12-29T11:09:51;5.10;;;1.27;;
10872;SDS011;34586;53.616;10.032;2022-12-29T11:12:18;5.27;;;1.10;;
10872;SDS011;34586;53.616;10.032;2022-12-29T11:14:46;4.60;;;0.90;;
10872;SDS011;34586;53.616;10.032;2022-12-29T11:17:14;2.50;;;0.90;;
10872;SDS011;34586;53.616;10.032;2022-12-29T11:19:42;5.40;;;1.20;;
10872;SDS011;34586;53.616;10.032;2022-12-29T11:22:19;7.13;;;1.40;;
10872;SDS011;34586;53.616;10.032;2022-12-29T11:24:47;8.53;;;1.10;;
10872;SDS011;34586;53.616;10.032;2022-12-29T11:27:18;5.87;;;1.30;;
10872;SDS011;34586;53.616;10.032;2022-12-29T11:29:52;4.53;;;1.07;;
10872;SDS011;34586;53.616;10.032;2022-12-29T11:32:23;5.47;;;0.97;;
10872;SDS011;34586;53.616;10.032;2022-12-29T11:34:50;5.27;;;1.30;;
10872;SDS011;34586;53.616;10.032;2022-12-29T11:37:17;5.17;;;1.03;;
10872;SDS011;34586;53.616;10.032;2022-12-29T11:39:55;1.37;;;0.83;;
10872;SDS011;34586;53.616;10.032;2022-12-29T11:45:06;4.87;;;1.13;;
10872;SDS011;34586;53.616;10.032;2022-12-29T11:47:43;2.50;;;0.70;;
10872;SDS011;34586;53.616;10.032;2022-12-29T11:50:16;2.60;;;0.67;;
10872;SDS011;34586;53.616;10.032;2022-12-29T11:52:58;2.93;;;0.90;;
10872;SDS011;34586;53.616;10.032;2022-12-29T11:55:57;1.53;;;0.70;;
10872;SDS011;34586;53.616;10.032;2022-12-29T11:58:36;6.17;;;1.17;;
10872;SDS011;34586;53.616;10.032;2022-12-29T12:01:07;2.40;;;0.90;;
10872;SDS011;34586;53.616;10.032;2022-12-29T12:03:36;6.10;;;1.00;;
10872;SDS011;34586;53.616;10.032;2022-12-29T12:06:07;3.37;;;0.80;;
10872;SDS011;34586;53.616;10.032;2022-12-29T12:08:42;5.07;;;0.87;;
10872;SDS011;34586;53.616;10.032;2022-12-29T12:11:18;2.93;;;0.80;;
10872;SDS011;34586;53.616;10.032;2022-12-29T12:16:31;3.30;;;0.90;;
10872;SDS011;34586;53.616;10.032;2022-12-29T12:27:26;5.43;;;1.00;;
10872;SDS011;34586;53.616;10.032;2022-12-29T12:30:02;2.33;;;0.90;;
10872;SDS011;34586;53.616;10.032;2022-12-29T12:32:52;3.47;;;0.80;;
10872;SDS011;34586;53.616;10.032;2022-12-29T12:35:28;5.37;;;0.90;;
10872;SDS011;34586;53.616;10.032;2022-12-29T12:38:42;3.83;;;1.00;;
10872;SDS011;34586;53.616;10.032;2022-12-29T12:47:56;2.70;;;0.93;;
10872;SDS011;34586;53.616;10.032;2022-12-29T12:53:19;4.20;;;1.47;;
10872;SDS011;34586;53.616;10.032;2022-12-29T12:56:08;3.60;;;0.70;;
10872;SDS011;34586;53.616;10.032;2022-12-29T12:59:23;2.50;;;1.00;;
10872;SDS011;34586;53.616;10.032;2022-12-29T13:04:27;4.50;;;1.30;;
10872;SDS011;34586;53.616;10.032;2022-12-29T13:12:56;9.93;;;1.53;;
10872;SDS011;34586;53.616;10.032;2022-12-29T13:15:41;5.33;;;1.17;;
10872;SDS011;34586;53.616;10.032;2022-12-29T13:19:30;9.47;;;1.57;;
10872;SDS011;34586;53.616;10.032;2022-12-29T13:24:21;2.73;;;1.10;;
10872;SDS011;34586;53.616;10.032;2022-12-29T13:29:44;3.77;;;1.00;;
10872;SDS011;34586;53.616;10.032;2022-12-29T13:40:50;6.03;;;0.97;;
10872;SDS011;34586;53.616;10.032;2022-12-29T13:43:20;6.73;;;1.17;;
10872;SDS011;34586;53.616;10.032;2022-12-29T13:45:52;6.40;;;1.60;;
10872;SDS011;34586;53.616;10.032;2022-12-29T13:48:35;4.87;;;1.50;;
10872;SDS011;34586;53.616;10.032;2022-12-29T13:51:04;4.33;;;1.20;;
10872;SDS011;34586;53.616;10.032;2022-12-29T13:53:37;9.53;;;1.80;;
10872;SDS011;34586;53.616;10.032;2022-12-29T13:56:39;5.30;;;1.37;;
10872;SDS011;34586;53.616;10.032;2022-12-29T13:59:23;6.53;;;1.47;;
10872;SDS011;34586;53.616;10.032;2022-12-29T14:02:10;4.23;;;1.20;;
10872;SDS011;34586;53.616;10.032;2022-12-29T14:07:46;3.63;;;1.00;;
10872;SDS011;34586;53.616;10.032;2022-12-29T14:10:33;8.73;;;1.10;;
10872;SDS011;34586;53.616;10.032;2022-12-29T14:13:02;6.83;;;1.30;;
10872;SDS011;34586;53.616;10.032;2022-12-29T14:15:43;4.67;;;1.00;;
10872;SDS011;34586;53.616;10.032;2022-12-29T14:18:12;4.43;;;1.07;;
10872;SDS011;34586;53.616;10.032;2022-12-29T14:20:47;7.73;;;1.00;;
10872;SDS011;34586;53.616;10.032;2022-12-29T14:23:28;3.13;;;0.83;;
10872;SDS011;34586;53.616;10.032;2022-12-29T14:28:51;4.17;;;0.90;;
10872;SDS011;34586;53.616;10.032;2022-12-29T14:34:28;6.63;;;0.80;;
10872;SDS011;34586;53.616;10.032;2022-12-29T14:36:37;5.17;;;1.17;;
10872;SDS011;34586;53.616;10.032;2022-12-29T14:45:35;7.97;;;1.30;;
10872;SDS011;34586;53.616;10.032;2022-12-29T14:49:55;7.77;;;1.27;;
10872;SDS011;34586;53.616;10.032;2022-12-29T14:52:28;8.70;;;1.13;;
10872;SDS011;34586;53.616;10.032;2022-12-29T14:54:59;5.40;;;1.10;;
10872;SDS011;34586;53.616;10.032;2022-12-29T14:57:41;5.90;;;1.30;;
10872;SDS011;34586;53.616;10.032;2022-12-29T15:02:49;5.43;;;1.63;;
10872;SDS011;34586;53.616;10.032;2022-12-29T15:05:41;10.60;;;1.73;;
10872;SDS011;34586;53.616;10.032;2022-12-29T15:08:11;8.80;;;1.60;;
10872;SDS011;34586;53.616;10.032;2022-12-29T15:10:42;7.00;;;1.40;;
10872;SDS011;34586;53.616;10.032;2022-12-29T15:13:20;5.27;;;1.50;;
10872;SDS011;34586;53.616;10.032;2022-12-29T15:15:47;8.60;;;2.63;;
10872;SDS011;34586;53.616;10.032;2022-12-29T15:18:14;7.47;;;1.97;;
10872;SDS011;34586;53.616;10.032;2022-12-29T15:20:57;6.20;;;1.90;;
10872;SDS011;34586;53.616;10.032;2022-12-29T15:23:25;9.97;;;2.63;;
10872;SDS011;34586;53.616;10.032;2022-12-29T15:25:56;9.10;;;2.20;;
10872;SDS011;34586;53.616;10.032;2022-12-29T15:28:40;8.63;;;2.17;;
10872;SDS011;34586;53.616;10.032;2022-12-29T15:31:11;7.77;;;2.13;;
10872;SDS011;34586;53.616;10.032;2022-12-29T15:33:41;10.07;;;1.83;;
10872;SDS011;34586;53.616;10.032;2022-12-29T15:36:10;10.07;;;2.27;;
10872;SDS011;34586;53.616;10.032;2022-12-29T15:38:38;6.17;;;1.80;;
10872;SDS011;34586;53.616;10.032;2022-12-29T15:41:05;9.70;;;2.50;;
10872;SDS011;34586;53.616;10.032;2022-12-29T15:46:10;12.73;;;2.33;;
10872;SDS011;34586;53.616;10.032;2022-12-29T15:48:36;13.97;;;3.30;;
10872;SDS011;34586;53.616;10.032;2022-12-29T15:51:03;9.83;;;2.47;;
10872;SDS011;34586;53.616;10.032;2022-12-29T15:54:00;10.07;;;2.47;;
10872;SDS011;34586;53.616;10.032;2022-12-29T15:56:30;9.70;;;2.57;;
10872;SDS011;34586;53.616;10.032;2022-12-29T15:58:57;9.97;;;2.03;;
10872;SDS011;34586;53.616;10.032;2022-12-29T16:03:54;7.67;;;1.63;;
10872;SDS011;34586;53.616;10.032;2022-12-29T16:06:32;8.53;;;2.17;;
10872;SDS011;34586;53.616;10.032;2022-12-29T16:09:01;10.60;;;2.17;;
10872;SDS011;34586;53.616;10.032;2022-12-29T16:11:29;8.00;;;2.90;;
10872;SDS011;34586;53.616;10.032;2022-12-29T16:13:55;10.33;;;2.60;;
10872;SDS011;34586;53.616;10.032;2022-12-29T16:16:24;6.97;;;2.50;;
10872;SDS011;34586;53.616;10.032;2022-12-29T16:19:19;9.30;;;2.40;;
10872;SDS011;34586;53.616;10.032;2022-12-29T16:21:51;11.97;;;2.50;;
10872;SDS011;34586;53.616;10.032;2022-12-29T16:24:20;8.80;;;2.83;;
10872;SDS011;34586;53.616;10.032;2022-12-29T16:26:51;14.37;;;3.10;;
10872;SDS011;34586;53.616;10.032;2022-12-29T16:29:31;8.53;;;2.30;;
10872;SDS011;34586;53.616;10.032;2022-12-29T16:31:58;9.57;;;2.43;;
10872;SDS011;34586;53.616;10.032;2022-12-29T16:34:27;13.43;;;2.50;;
10872;SDS011;34586;53.616;10.032;2022-12-29T16:37:03;15.17;;;6.23;;
10872;SDS011;34586;53.616;10.032;2022-12-29T16:39:34;14.53;;;7.20;;
10872;SDS011;34586;53.616;10.032;2022-12-29T16:47:45;13.90;;;3.57;;
10872;SDS011;34586;53.616;10.032;2022-12-29T16:50:12;12.23;;;3.20;;
10872;SDS011;34586;53.616;10.032;2022-12-29T16:52:42;14.93;;;3.73;;
10872;SDS011;34586;53.616;10.032;2022-12-29T16:55:14;17.90;;;3.53;;
10872;SDS011;34586;53.616;10.032;2022-12-29T16:57:42;4.87;;;3.13;;
10872;SDS011;34586;53.616;10.032;2022-12-29T17:00:20;14.60;;;4.10;;
10872;SDS011;34586;53.616;10.032;2022-12-29T17:02:48;20.73;;;4.73;;
10872;SDS011;34586;53.616;10.032;2022-12-29T17:05:15;14.90;;;3.87;;
10872;SDS011;34586;53.616;10.032;2022-12-29T17:07:42;10.40;;;3.00;;